24°C Temp
15°C Dewpoint
57% Humidity
Temperature
3 KM/H
2 MPH
2 KTS
220°
South West

Wind Speed
Clear
Conditions
Pressure 1012.87 (hPa) - 29.91 (in)
Visibility 6.0 (mi) - 9.7 (km)

Current Conditions
EPRZ
Location 9(km)
Metar :EPRZ 222000Z 22002KT CAVOK 24/15 Q1013
Mon 22nd July 23:00 pm

Airport